Terminal Aerodrome Forecast
Issued by NWS

Home | Current Version | Previous Version | Text Only | Print | Product List | Glossary On
Versions: 1 2 3 4 5 6 7 8 9 10 11 12 13 14 15 16 17 18 19 20 21 22 23 24 25 26 27 28 29 30 31 32 33 34 35 36 37 38 39 40 41 42 43 44
000
FTUS43 KGRB 040537
TAFRHI
TAF
KRHI 040537Z 0406/0506 VRB02KT 3SM BR SCT012
      TEMPO 0406/0408 1SM BR SCT003 BKN010
     FM040800 VRB03KT 2SM BR BKN003
      TEMPO 0408/0412 1/2SM FG
     FM041500 06005KT P6SM SCT004 BKN009
     FM041700 13005KT P6SM SCT015 SCT200=

USA.gov is the U.S. government's official web portal to all federal, state and local government web resources and services.